createdAt,value
2019-04-11T00:01:35.039Z,2.38
2019-04-11T00:03:54.028Z,2.33
2019-04-11T00:06:23.562Z,2.44
2019-04-11T00:08:53.008Z,2.39
2019-04-11T00:11:24.039Z,2.35
2019-04-11T00:13:53.649Z,2.31
2019-04-11T00:16:23.516Z,2.22
2019-04-11T00:18:54.717Z,2.25
2019-04-11T00:21:24.615Z,2.27
2019-04-11T00:23:54.502Z,2.22
2019-04-11T00:26:24.400Z,2.21
2019-04-11T00:28:54.216Z,2.24
2019-04-11T00:31:23.654Z,2.12
2019-04-11T00:33:54.183Z,2.12
2019-04-11T00:36:24.211Z,2.12
2019-04-11T00:38:55.180Z,2.04
2019-04-11T00:41:24.604Z,1.97
2019-04-11T00:43:54.657Z,1.95
2019-04-11T00:46:24.551Z,1.96
2019-04-11T00:48:54.499Z,1.90
2019-04-11T00:51:23.890Z,1.86
2019-04-11T00:53:54.142Z,1.87
2019-04-11T00:56:24.150Z,1.87
2019-04-11T00:58:54.025Z,1.84
2019-04-11T01:01:24.022Z,1.79
2019-04-11T01:03:54.211Z,1.78
2019-04-11T01:06:23.501Z,1.75
2019-04-11T01:08:53.700Z,1.74
2019-04-11T01:11:23.793Z,1.72
2019-04-11T01:13:55.364Z,1.67
2019-04-11T01:16:26.315Z,1.58
2019-04-11T01:18:55.615Z,1.66
2019-04-11T01:21:24.913Z,1.64
2019-04-11T01:23:55.239Z,1.61
2019-04-11T01:26:25.373Z,1.61
2019-04-11T01:28:55.920Z,1.53
2019-04-11T01:31:27.351Z,1.45
2019-04-11T01:33:57.083Z,1.50
2019-04-11T01:36:26.978Z,1.40
2019-04-11T01:39:15.241Z,1.40
2019-04-11T01:41:44.991Z,1.43
2019-04-11T01:44:14.527Z,1.38
2019-04-11T01:46:44.443Z,1.37
2019-04-11T01:49:22.674Z,1.33
2019-04-11T01:51:52.137Z,1.29
2019-04-11T01:54:21.797Z,1.22
2019-04-11T01:56:51.621Z,1.22
2019-04-11T01:59:21.604Z,1.24
2019-04-11T02:02:05.392Z,1.19
2019-04-11T02:04:46.053Z,1.20
2019-04-11T02:07:15.567Z,1.08
2019-04-11T02:09:44.969Z,1.10
2019-04-11T02:12:14.355Z,1.04
2019-04-11T02:14:43.962Z,1.06
2019-04-11T02:17:13.359Z,1.04
2019-04-11T02:19:42.762Z,0.98
2019-04-11T02:22:32.725Z,0.92
2019-04-11T02:25:13.003Z,0.92
2019-04-11T02:27:42.390Z,0.88
2019-04-11T02:30:14.351Z,0.86
2019-04-11T02:32:44.911Z,0.85
2019-04-11T02:35:15.393Z,0.82
2019-04-11T02:37:47.649Z,0.80
2019-04-11T02:40:17.661Z,0.83
2019-04-11T02:42:47.599Z,0.82
2019-04-11T02:45:35.523Z,0.74
2019-04-11T02:47:50.971Z,0.67
2019-04-11T02:50:21.968Z,0.60
2019-04-11T02:52:52.049Z,0.58
2019-04-11T02:55:22.877Z,0.57
2019-04-11T02:57:52.320Z,0.57
2019-04-11T03:00:21.664Z,0.58
2019-04-11T03:02:53.109Z,0.53
2019-04-11T03:05:22.323Z,0.43
2019-04-11T03:07:51.702Z,0.37
2019-04-11T03:10:21.416Z,0.34
2019-04-11T03:12:52.536Z,0.43
2019-04-11T03:15:37.673Z,0.48
2019-04-11T03:17:57.687Z,0.54
2019-04-11T03:20:32.557Z,0.41
2019-04-11T03:23:00.394Z,0.34
2019-04-11T03:25:28.390Z,0.35
2019-04-11T03:28:01.240Z,0.26
2019-04-11T03:30:52.083Z,0.29
2019-04-11T03:33:55.586Z,0.29
2019-04-11T03:36:22.135Z,0.22
2019-04-11T03:38:33.091Z,0.21
2019-04-11T03:40:55.264Z,0.24
2019-04-11T03:43:22.706Z,0.17
2019-04-11T03:46:01.869Z,0.20
2019-04-11T03:48:23.585Z,0.13
2019-04-11T03:50:40.200Z,0.16
2019-04-11T03:53:11.423Z,0.19
2019-04-11T03:55:41.084Z,0.23
2019-04-11T03:58:10.550Z,0.24
2019-04-11T04:00:43.655Z,0.20
2019-04-11T04:03:13.445Z,0.25
2019-04-11T04:05:44.286Z,0.17
2019-04-11T04:08:14.396Z,0.20
2019-04-11T04:10:45.580Z,0.21
2019-04-11T04:13:18.925Z,0.22
2019-04-11T04:16:10.404Z,0.19
2019-04-11T04:18:32.141Z,0.20
2019-04-11T04:21:04.311Z,0.18
2019-04-11T04:23:37.845Z,0.16
2019-04-11T04:26:10.058Z,0.13
2019-04-11T04:28:40.788Z,0.13
2019-04-11T04:31:11.469Z,0.15
2019-04-11T04:33:42.802Z,0.14
2019-04-11T04:36:13.864Z,0.16
2019-04-11T04:38:44.520Z,0.12
2019-04-11T04:41:28.294Z,0.11
2019-04-11T04:43:48.095Z,0.06
2019-04-11T04:46:34.717Z,0.08
2019-04-11T04:48:51.025Z,0.05
2019-04-11T04:51:20.686Z,0.04
2019-04-11T04:53:52.133Z,0.11
2019-04-11T04:56:26.034Z,0.14
2019-04-11T04:58:54.040Z,0.05
2019-04-11T05:01:23.887Z,0.08
2019-04-11T05:03:54.064Z,0.05
2019-04-11T05:06:24.119Z,0.12
2019-04-11T05:08:53.675Z,0.21
2019-04-11T05:11:23.311Z,0.19
2019-04-11T05:13:54.342Z,0.25
2019-04-11T05:16:24.019Z,0.25
2019-04-11T05:18:54.652Z,0.31
2019-04-11T05:21:25.348Z,0.36
2019-04-11T05:23:56.684Z,0.41
2019-04-11T05:26:26.157Z,0.50
2019-04-11T05:28:55.658Z,0.58
2019-04-11T05:31:24.938Z,0.65
2019-04-11T05:33:54.248Z,0.75
2019-04-11T05:36:24.719Z,0.88
2019-04-11T05:38:54.739Z,1.01
2019-04-11T05:41:24.710Z,1.21
2019-04-11T05:43:55.734Z,1.39
2019-04-11T05:46:33.479Z,1.68
2019-04-11T05:49:04.225Z,2.05
2019-04-11T05:51:40.998Z,2.61
2019-04-11T05:54:07.754Z,3.36
2019-04-11T05:56:37.557Z,3.36
2019-04-11T05:59:09.455Z,3.49
2019-04-11T06:01:44.604Z,4.38
2019-04-11T06:04:32.294Z,5.17
2019-04-11T06:07:08.425Z,5.78
2019-04-11T06:09:41.430Z,6.11
2019-04-11T06:12:17.593Z,6.14
2019-04-11T06:14:49.290Z,6.51
2019-04-11T06:17:19.932Z,6.30
2019-04-11T06:20:08.241Z,6.32
2019-04-11T06:22:40.132Z,5.50
2019-04-11T06:25:18.818Z,5.34
2019-04-11T06:27:49.635Z,5.00
2019-04-11T06:30:21.042Z,4.15
2019-04-11T06:32:54.664Z,3.18
2019-04-11T06:35:26.149Z,3.13
2019-04-11T06:38:14.151Z,3.11
2019-04-11T06:40:46.122Z,3.23
2019-04-11T06:43:23.659Z,3.53
2019-04-11T06:45:57.253Z,3.70
2019-04-11T06:48:40.249Z,4.15
2019-04-11T06:51:11.616Z,4.23
2019-04-11T06:53:44.069Z,4.26
2019-04-11T06:56:19.079Z,4.60
2019-04-11T06:58:54.124Z,4.69
2019-04-11T07:01:25.863Z,5.04
2019-04-11T07:03:57.474Z,5.10
2019-04-11T07:06:29.398Z,5.43
2019-04-11T07:09:12.545Z,5.90
2019-04-11T07:11:50.709Z,6.03
2019-04-11T07:14:38.325Z,6.23
2019-04-11T07:17:25.408Z,5.95
2019-04-11T07:20:13.055Z,5.75
2019-04-11T07:23:01.604Z,5.16
2019-04-11T07:25:47.941Z,5.45
2019-04-11T07:28:35.755Z,5.72
2019-04-11T07:31:10.551Z,5.82
2019-04-11T07:34:00.864Z,5.35
2019-04-11T07:36:48.390Z,5.47
2019-04-11T07:39:25.649Z,5.82
2019-04-11T07:42:00.377Z,5.77
2019-04-11T07:44:34.216Z,5.88
2019-04-11T07:47:17.244Z,6.28
2019-04-11T07:49:42.893Z,6.62
2019-04-11T07:52:22.401Z,6.65
2019-04-11T07:54:51.683Z,6.84
2019-04-11T07:57:26.335Z,7.31
2019-04-11T08:00:08.249Z,7.58
2019-04-11T08:02:40.495Z,7.41
2019-04-11T08:05:30.412Z,7.84
2019-04-11T08:08:17.940Z,7.94
2019-04-11T08:10:55.215Z,7.25
2019-04-11T08:13:30.357Z,7.69
2019-04-11T08:16:14.667Z,7.80
2019-04-11T08:18:51.595Z,8.03
2019-04-11T08:21:38.989Z,7.60
2019-04-11T08:24:10.059Z,7.57
2019-04-11T08:26:53.116Z,7.97
2019-04-11T08:29:24.288Z,7.60
2019-04-11T08:32:11.807Z,7.84
2019-04-11T08:34:43.732Z,7.57
2019-04-11T08:37:31.712Z,7.80
2019-04-11T08:40:01.833Z,8.21
2019-04-11T08:42:50.856Z,8.90
2019-04-11T08:45:22.163Z,9.30
2019-04-11T08:47:55.631Z,9.92
2019-04-11T08:50:28.263Z,9.98
2019-04-11T08:53:02.561Z,9.28
2019-04-11T08:55:45.604Z,9.37
2019-04-11T08:58:06.539Z,9.47
2019-04-11T09:00:40.083Z,9.77
2019-04-11T09:03:26.016Z,9.52
2019-04-11T09:06:06.332Z,10.13
2019-04-11T09:08:54.407Z,10.00
2019-04-11T09:11:25.675Z,10.98
2019-04-11T09:14:06.112Z,11.54
2019-04-11T09:16:56.238Z,11.45
2019-04-11T09:19:27.338Z,12.72
2019-04-11T09:22:17.118Z,13.16
2019-04-11T09:24:51.051Z,14.07
2019-04-11T09:27:25.139Z,14.82
2019-04-11T09:30:02.508Z,15.66
2019-04-11T09:32:51.517Z,15.03
2019-04-11T09:35:25.042Z,15.61
2019-04-11T09:37:56.142Z,15.20
2019-04-11T09:40:36.280Z,15.73
2019-04-11T09:43:09.885Z,15.86
2019-04-11T09:45:47.986Z,17.20
2019-04-11T09:48:34.982Z,16.58
2019-04-11T09:51:07.335Z,16.43
2019-04-11T09:53:38.836Z,16.48
2019-04-11T09:56:27.122Z,16.03
2019-04-11T09:58:58.258Z,16.44
2019-04-11T10:01:38.277Z,18.05
2019-04-11T10:04:09.342Z,17.81
2019-04-11T10:06:48.700Z,18.21
2019-04-11T10:09:18.106Z,17.60
2019-04-11T10:12:06.535Z,16.41
2019-04-11T10:14:35.845Z,16.78
2019-04-11T10:17:26.000Z,16.80
2019-04-11T10:19:54.305Z,17.41
2019-04-11T10:22:32.214Z,18.69
2019-04-11T10:25:08.847Z,18.51
2019-04-11T10:27:49.038Z,18.75
2019-04-11T10:30:36.302Z,17.94
2019-04-11T10:33:17.030Z,17.43
2019-04-11T10:36:03.277Z,16.73
2019-04-11T10:38:33.343Z,18.78
2019-04-11T10:41:04.401Z,18.14
2019-04-11T10:43:34.451Z,17.66
2019-04-11T10:46:17.460Z,17.58
2019-04-11T10:48:49.146Z,17.77
2019-04-11T10:51:38.194Z,18.08
2019-04-11T10:54:08.576Z,17.47
2019-04-11T10:56:55.813Z,16.73
2019-04-11T10:59:27.964Z,17.96
2019-04-11T11:02:00.171Z,19.28
2019-04-11T11:04:32.455Z,18.82
2019-04-11T11:07:04.361Z,19.10
2019-04-11T11:09:44.398Z,20.23
2019-04-11T11:12:21.329Z,20.08
2019-04-11T11:14:55.384Z,19.64
2019-04-11T11:18:00.995Z,19.99
2019-04-11T11:20:38.644Z,19.23
2019-04-11T11:23:22.912Z,18.76
2019-04-11T11:26:09.135Z,19.31
2019-04-11T11:28:50.819Z,19.28
2019-04-11T11:31:24.864Z,19.17
2019-04-11T11:33:56.542Z,18.66
2019-04-11T11:36:43.764Z,20.01
2019-04-11T11:39:19.241Z,20.82
2019-04-11T11:42:06.505Z,21.69
2019-04-11T11:44:55.226Z,18.52
2019-04-11T11:47:43.213Z,19.13
2019-04-11T11:50:19.831Z,19.09
2019-04-11T11:53:09.931Z,18.86
2019-04-11T11:55:38.940Z,18.86
2019-04-11T11:58:22.029Z,19.25
2019-04-11T12:00:55.368Z,18.63
2019-04-11T12:03:32.960Z,16.91
2019-04-11T12:06:05.295Z,17.22
2019-04-11T12:08:56.080Z,17.02
2019-04-11T12:11:26.328Z,18.21
2019-04-11T12:14:09.752Z,19.33
2019-04-11T12:16:59.531Z,16.53
2019-04-11T12:19:26.899Z,14.54
2019-04-11T12:21:57.985Z,13.86
2019-04-11T12:24:41.064Z,14.71
2019-04-11T12:27:18.538Z,15.39
2019-04-11T12:29:53.476Z,17.30
2019-04-11T12:32:24.431Z,17.81
2019-04-11T12:34:56.110Z,18.81
2019-04-11T12:37:29.826Z,18.08
2019-04-11T12:40:17.281Z,19.10
2019-04-11T12:42:46.931Z,17.67
2019-04-11T12:45:30.234Z,15.70
2019-04-11T12:47:59.742Z,14.44
2019-04-11T12:50:36.947Z,15.47
2019-04-11T12:53:08.534Z,16.76
2019-04-11T12:55:51.627Z,16.98
2019-04-11T12:58:25.482Z,16.98
2019-04-11T13:01:12.994Z,17.14
2019-04-11T13:03:46.535Z,18.12
2019-04-11T13:06:35.111Z,16.62
2019-04-11T13:09:20.429Z,17.00
2019-04-11T13:11:51.392Z,17.94
2019-04-11T13:14:25.337Z,18.30
2019-04-11T13:16:56.402Z,17.28
2019-04-11T13:19:44.077Z,17.10
2019-04-11T13:22:15.042Z,19.04
2019-04-11T13:24:54.747Z,17.13
2019-04-11T13:27:25.772Z,14.16
2019-04-11T13:30:12.794Z,13.35
2019-04-11T13:32:46.627Z,13.81
2019-04-11T13:35:21.649Z,13.93
2019-04-11T13:38:08.644Z,14.49
2019-04-11T13:40:45.625Z,14.74
2019-04-11T13:43:22.686Z,14.11
2019-04-11T13:45:56.403Z,13.96
2019-04-11T13:48:44.900Z,16.18
2019-04-11T13:51:18.629Z,17.49
2019-04-11T13:54:06.247Z,16.89
2019-04-11T13:56:49.343Z,17.47
2019-04-11T13:59:35.607Z,17.80
2019-04-11T14:02:17.707Z,18.08
2019-04-11T14:05:03.888Z,18.77
2019-04-11T14:07:34.798Z,19.57
2019-04-11T14:10:06.887Z,18.94
2019-04-11T14:12:36.819Z,18.49
2019-04-11T14:15:08.609Z,17.16
2019-04-11T14:17:55.757Z,16.34
2019-04-11T14:20:35.787Z,14.77
2019-04-11T14:23:15.195Z,14.73
2019-04-11T14:25:53.473Z,15.13
2019-04-11T14:28:39.300Z,16.64
2019-04-11T14:31:16.293Z,16.59
2019-04-11T14:34:03.671Z,16.63
2019-04-11T14:36:49.724Z,14.67
2019-04-11T14:39:20.807Z,14.98
2019-04-11T14:42:11.748Z,16.15
2019-04-11T14:44:42.146Z,14.71
2019-04-11T14:47:29.715Z,15.42
2019-04-11T14:50:01.093Z,15.24
2019-04-11T14:52:48.364Z,13.53
2019-04-11T14:55:19.622Z,14.34
2019-04-11T14:58:06.869Z,13.94
2019-04-11T15:00:38.480Z,13.45
2019-04-11T15:03:25.918Z,15.81
2019-04-11T15:05:58.702Z,15.66
2019-04-11T15:08:38.747Z,14.62
2019-04-11T15:11:09.835Z,14.19
2019-04-11T15:13:41.041Z,13.62
2019-04-11T15:16:11.935Z,14.22
2019-04-11T15:18:42.982Z,13.20
2019-04-11T15:21:30.169Z,12.66
2019-04-11T15:23:59.494Z,13.63
2019-04-11T15:26:30.504Z,12.50
2019-04-11T15:29:01.448Z,11.98
2019-04-11T15:31:49.614Z,12.68
2019-04-11T15:34:37.492Z,13.63
2019-04-11T15:37:28.116Z,12.61
2019-04-11T15:40:07.876Z,11.47
2019-04-11T15:42:41.962Z,11.13
2019-04-11T15:45:19.035Z,10.69
2019-04-11T15:47:52.794Z,10.63
2019-04-11T15:50:40.280Z,11.16
2019-04-11T15:53:09.559Z,11.58
2019-04-11T15:55:43.473Z,12.89
2019-04-11T15:58:13.554Z,12.66
2019-04-11T16:00:44.679Z,13.58
2019-04-11T16:03:14.239Z,14.11
2019-04-11T16:06:02.131Z,13.30
2019-04-11T16:08:33.245Z,13.71
2019-04-11T16:11:06.975Z,13.19
2019-04-11T16:13:49.739Z,12.46
2019-04-11T16:16:20.818Z,11.38
2019-04-11T16:18:57.892Z,10.39
2019-04-11T16:21:39.967Z,10.57
2019-04-11T16:24:27.613Z,10.38
2019-04-11T16:27:05.092Z,11.07
2019-04-11T16:29:44.858Z,11.52
2019-04-11T16:32:18.972Z,11.88
2019-04-11T16:34:54.385Z,11.35
2019-04-11T16:37:21.200Z,11.41
2019-04-11T16:40:10.088Z,11.58
2019-04-11T16:42:41.312Z,11.88
2019-04-11T16:45:29.871Z,11.67
2019-04-11T16:48:05.266Z,10.97
2019-04-11T16:50:34.814Z,10.93
2019-04-11T16:53:04.286Z,10.20
2019-04-11T16:55:36.538Z,9.79
2019-04-11T16:58:04.975Z,9.87
2019-04-11T17:00:36.007Z,9.63
2019-04-11T17:03:05.434Z,9.26
2019-04-11T17:05:35.406Z,9.32
2019-04-11T17:08:06.337Z,9.19
2019-04-11T17:10:56.695Z,9.30
2019-04-11T17:13:25.983Z,9.23
2019-04-11T17:15:55.365Z,9.12
2019-04-11T17:18:24.803Z,9.14
2019-04-11T17:20:54.118Z,9.08
2019-04-11T17:23:23.574Z,8.95
2019-04-11T17:25:53.803Z,8.75
2019-04-11T17:28:24.319Z,8.71
2019-04-11T17:30:55.767Z,8.64
2019-04-11T17:33:27.785Z,8.68
2019-04-11T17:35:56.195Z,8.52
2019-04-11T17:38:25.553Z,8.43
2019-04-11T17:40:54.918Z,8.37
2019-04-11T17:43:24.324Z,8.21
2019-04-11T17:45:56.976Z,8.21
2019-04-11T17:48:24.902Z,8.19
2019-04-11T17:50:55.093Z,8.15
2019-04-11T17:53:24.875Z,8.13
2019-04-11T17:55:55.089Z,8.06
2019-04-11T17:58:27.053Z,8.03
2019-04-11T18:00:57.281Z,8.03
2019-04-11T18:03:26.568Z,8.02
2019-04-11T18:05:55.873Z,8.02
2019-04-11T18:08:25.466Z,7.95
2019-04-11T18:10:56.021Z,7.91
2019-04-11T18:13:30.566Z,7.89
2019-04-11T18:16:00.819Z,7.86
2019-04-11T18:18:28.954Z,7.76
2019-04-11T18:20:58.452Z,7.71
2019-04-11T18:23:28.061Z,7.68
2019-04-11T18:25:57.458Z,7.64
2019-04-11T18:28:26.814Z,7.58
2019-04-11T18:30:56.275Z,7.51
2019-04-11T18:33:25.669Z,7.45
2019-04-11T18:35:55.026Z,7.40
2019-04-11T18:38:25.475Z,7.41
2019-04-11T18:40:54.957Z,7.39
2019-04-11T18:43:25.563Z,7.32
2019-04-11T18:45:55.118Z,7.40
2019-04-11T18:48:24.533Z,7.30
2019-04-11T18:50:53.982Z,7.26
2019-04-11T18:53:23.387Z,7.19
2019-04-11T18:55:52.794Z,7.05
2019-04-11T18:58:22.222Z,7.03
2019-04-11T19:00:51.718Z,7.01
2019-04-11T19:03:21.186Z,7.01
2019-04-11T19:05:50.533Z,6.84
2019-04-11T19:08:20.127Z,6.74
2019-04-11T19:10:49.491Z,6.74
2019-04-11T19:13:20.510Z,6.86
2019-04-11T19:15:49.821Z,6.76
2019-04-11T19:18:19.278Z,6.74
2019-04-11T19:20:50.397Z,6.88
2019-04-11T19:23:19.730Z,6.87
2019-04-11T19:25:49.006Z,6.86
2019-04-11T19:28:19.899Z,6.82
2019-04-11T19:30:49.225Z,6.82
2019-04-11T19:33:19.270Z,6.86
2019-04-11T19:35:49.632Z,6.86
2019-04-11T19:38:30.847Z,6.83
2019-04-11T19:41:00.338Z,6.85
2019-04-11T19:43:29.633Z,6.86
2019-04-11T19:45:59.343Z,6.80
2019-04-11T19:48:28.684Z,6.73
2019-04-11T19:50:58.969Z,6.66
2019-04-11T19:53:32.877Z,6.61
2019-04-11T19:56:16.911Z,6.52
2019-04-11T19:58:46.836Z,6.49
2019-04-11T20:01:16.410Z,6.50
2019-04-11T20:03:47.023Z,6.49
2019-04-11T20:06:16.454Z,6.45
2019-04-11T20:08:47.704Z,6.27
2019-04-11T20:11:17.924Z,6.23
2019-04-11T20:13:47.280Z,6.16
2019-04-11T20:16:16.569Z,6.12
2019-04-11T20:18:51.351Z,6.10
2019-04-11T20:21:17.036Z,6.14
2019-04-11T20:23:46.556Z,6.01
2019-04-11T20:26:19.981Z,5.95
2019-04-11T20:28:48.211Z,5.81
2019-04-11T20:31:18.023Z,5.68
2019-04-11T20:33:47.349Z,5.61
2019-04-11T20:36:16.614Z,5.47
2019-04-11T20:38:47.150Z,5.38
2019-04-11T20:41:16.537Z,5.41
2019-04-11T20:43:45.825Z,5.39
2019-04-11T20:46:15.481Z,5.31
2019-04-11T20:48:45.094Z,5.13
2019-04-11T20:51:14.435Z,5.02
2019-04-11T20:53:43.734Z,4.95
2019-04-11T20:56:23.588Z,4.96
2019-04-11T20:58:44.691Z,4.88
2019-04-11T21:01:14.269Z,4.77
2019-04-11T21:03:43.592Z,4.71
2019-04-11T21:06:12.886Z,4.61
2019-04-11T21:08:42.235Z,4.49
2019-04-11T21:11:11.545Z,4.36
2019-04-11T21:13:41.164Z,4.59
2019-04-11T21:16:10.525Z,4.52
2019-04-11T21:18:39.892Z,4.40
2019-04-11T21:21:09.193Z,4.45
2019-04-11T21:23:38.803Z,4.50
2019-04-11T21:26:08.099Z,4.44
2019-04-11T21:28:37.465Z,4.39
2019-04-11T21:31:07.024Z,4.39
2019-04-11T21:33:36.320Z,4.23
2019-04-11T21:36:05.701Z,4.16
2019-04-11T21:38:35.281Z,4.16
2019-04-11T21:41:06.090Z,4.18
2019-04-11T21:43:36.204Z,4.11
2019-04-11T21:46:06.859Z,4.26
2019-04-11T21:48:37.118Z,4.30
2019-04-11T21:51:11.051Z,4.18
2019-04-11T21:53:37.489Z,4.16
2019-04-11T21:56:06.862Z,4.20
2019-04-11T21:58:37.253Z,4.04
2019-04-11T22:01:09.455Z,4.05
2019-04-11T22:03:38.604Z,4.02
2019-04-11T22:06:07.849Z,3.99
2019-04-11T22:08:37.221Z,4.00
2019-04-11T22:11:09.906Z,3.94
2019-04-11T22:13:40.435Z,3.92
2019-04-11T22:16:13.485Z,3.92
2019-04-11T22:18:40.278Z,3.88
2019-04-11T22:21:09.650Z,3.87
2019-04-11T22:23:48.251Z,3.89
2019-04-11T22:26:09.923Z,3.97
2019-04-11T22:28:39.616Z,4.00
2019-04-11T22:31:09.413Z,3.91
2019-04-11T22:33:43.417Z,3.91
2019-04-11T22:36:12.798Z,3.95
2019-04-11T22:38:42.172Z,3.95
2019-04-11T22:41:11.486Z,3.90
2019-04-11T22:43:41.010Z,3.91
2019-04-11T22:46:20.312Z,3.94
2019-04-11T22:48:43.036Z,3.96
2019-04-11T22:51:12.403Z,3.87
2019-04-11T22:53:43.326Z,3.83
2019-04-11T22:56:12.841Z,3.84
2019-04-11T22:58:43.514Z,3.82
2019-04-11T23:01:16.626Z,3.80
2019-04-11T23:03:49.279Z,3.68
2019-04-11T23:06:18.660Z,3.67
2019-04-11T23:08:48.978Z,3.65
2019-04-11T23:11:19.131Z,3.65
2019-04-11T23:13:48.579Z,3.58
2019-04-11T23:16:18.033Z,3.55
2019-04-11T23:18:47.480Z,3.52
2019-04-11T23:21:16.859Z,3.50
2019-04-11T23:23:46.159Z,3.58
2019-04-11T23:26:15.676Z,3.77
2019-04-11T23:28:46.719Z,3.84
2019-04-11T23:31:20.104Z,3.82
2019-04-11T23:33:51.798Z,3.96
2019-04-11T23:36:21.314Z,3.90
2019-04-11T23:38:52.605Z,3.90
2019-04-11T23:41:22.219Z,3.77
2019-04-11T23:43:51.491Z,3.87
2019-04-11T23:46:21.387Z,3.95
2019-04-11T23:48:55.486Z,3.94
2019-04-11T23:51:26.306Z,3.90
2019-04-11T23:53:54.342Z,3.87
2019-04-11T23:56:23.643Z,3.90
2019-04-11T23:58:53.125Z,3.96
